Groton, NY (13073)

12:42 PM EDT on August 25, 2016 (GMT -0400)
Millbrook Farms | | Change Station

Elev 1430 ft 42.56 °N, 76.32 °W | Updated 2 minutes ago

Mostly Cloudy
Mostly Cloudy
76.7 °F
Feels Like 78 °F
N
5.0
Wind Variable Wind from SW
Gusts 5.0 mph

Today
High -- | Low -- °F
--% Chance of Precip.
Yesterday
High -- | Low -- °F
Precip. -- in
Pressure 30.02 in
Visibility 10.0 miles
Clouds Few 1500 ft
Mostly Cloudy 4000 ft
Mostly Cloudy 7500 ft
Heat Index 78 °F
Dew Point 71 °F
Humidity 82%
Rainfall 0.04 in
Snow Depth Not available.
6:23 AM 7:50 PM
Last Quarter, 44% visible
METAR KITH 251556Z 20009KT 10SM FEW015 BKN040 BKN075 24/21 A3002 RMK AO2 SLPNO T02440211
Pressure 30.02 in
Visibility 10.0 miles
Clouds Few 1500 ft
Mostly Cloudy 4000 ft
Mostly Cloudy 7500 ft
Heat Index 78 °F
Dew Point 71 °F
Humidity 82%
Rainfall 0.04 in
Snow Depth Not available.
6:23 AM 7:50 PM
Last Quarter, 44% visible
METAR KITH 251556Z 20009KT 10SM FEW015 BKN040 BKN075 24/21 A3002 RMK AO2 SLPNO T02440211

10-Day Weather Forecast

Almanac

Astronomy

Aug. 25, 2016 Rise Set
Actual Time
Civil Twilight
Nautical Twilight
Astronomical Twilight
Moon
Length of Visible Light
Length of Day
Tomorrow will be .
, % of the Moon is Illuminated

Today's Extremes

State Highs State Lows

Community

WunderPhotos

Upload Photos

1,934,869 photos uploaded!

WunderBlog® & News

Nearby

Air Quality

  Air Quality AQ Index Pollutant
Not available.

Snow Depth

Station Depth Elevation

Earthquake Activity

City Distance Mag. Time & Date
Minimum magnitude displayed is 2.5.

Coastal Water Temperatures

Place Temperature

Stations

Nearby Weather Stations

Station Location Temp. Windchill Dew Point Humidity Wind Precip. Elev Updated Type
                   

Watches & Warnings

There are currently no watches in effect.